createdAt,value
2023-03-10T00:01:31.804Z,34.67
2023-03-10T00:04:01.081Z,39.50
2023-03-10T00:06:34.399Z,39.37
2023-03-10T00:09:01.878Z,36.33
2023-03-10T00:11:28.753Z,41.37
2023-03-10T00:13:55.630Z,39.80
2023-03-10T00:16:27.478Z,42.67
2023-03-10T00:18:55.674Z,41.03
2023-03-10T00:21:26.330Z,42.53
2023-03-10T00:23:54.029Z,36.97
2023-03-10T00:26:22.139Z,38.77
2023-03-10T00:28:49.724Z,38.50
2023-03-10T00:31:23.643Z,38.53
2023-03-10T00:33:52.183Z,37.17
2023-03-10T00:36:22.830Z,37.90
2023-03-10T00:38:51.104Z,37.00
2023-03-10T00:41:22.691Z,37.13
2023-03-10T00:43:50.047Z,33.30
2023-03-10T00:46:17.509Z,41.83
2023-03-10T00:48:44.606Z,38.13
2023-03-10T00:51:12.202Z,36.60
2023-03-10T00:53:40.719Z,37.70
2023-03-10T00:56:12.880Z,41.77
2023-03-10T00:58:40.389Z,41.83
2023-03-10T01:01:34.509Z,40.20
2023-03-10T01:04:10.181Z,42.27
2023-03-10T01:06:37.151Z,40.03
2023-03-10T01:09:04.997Z,42.83
2023-03-10T01:11:32.720Z,40.50
2023-03-10T01:14:03.266Z,34.77
2023-03-10T01:16:30.597Z,40.37
2023-03-10T01:18:58.814Z,39.63
2023-03-10T01:21:34.110Z,40.40
2023-03-10T01:24:02.458Z,37.83
2023-03-10T01:26:30.639Z,41.23
2023-03-10T01:28:57.980Z,33.20
2023-03-10T01:31:25.007Z,42.83
2023-03-10T01:33:51.975Z,41.17
2023-03-10T01:36:25.760Z,39.57
2023-03-10T01:38:54.602Z,38.17
2023-03-10T01:41:22.415Z,40.10
2023-03-10T01:43:52.414Z,38.97
2023-03-10T01:46:31.270Z,39.63
2023-03-10T01:49:15.500Z,36.40
2023-03-10T01:51:47.921Z,37.57
2023-03-10T01:54:23.080Z,41.67
2023-03-10T01:56:52.375Z,40.33
2023-03-10T01:59:21.054Z,43.83
2023-03-10T02:01:50.534Z,40.23
2023-03-10T02:04:30.212Z,40.77
2023-03-10T02:06:57.438Z,43.33
2023-03-10T02:09:25.600Z,35.97
2023-03-10T02:11:53.085Z,42.87
2023-03-10T02:14:20.145Z,43.03
2023-03-10T02:16:47.333Z,42.17
2023-03-10T02:19:35.846Z,42.50
2023-03-10T02:22:07.441Z,41.03
2023-03-10T02:25:09.513Z,39.93
2023-03-10T02:27:39.377Z,43.13
2023-03-10T02:30:10.007Z,43.27
2023-03-10T02:32:46.217Z,43.53
2023-03-10T02:35:13.429Z,43.03
2023-03-10T02:37:50.797Z,43.37
2023-03-10T02:40:43.832Z,40.53
2023-03-10T02:43:23.990Z,40.43
2023-03-10T02:46:01.213Z,42.13
2023-03-10T02:48:36.894Z,41.80
2023-03-10T02:51:14.047Z,40.17
2023-03-10T02:53:41.400Z,39.07
2023-03-10T02:56:08.351Z,44.23
2023-03-10T02:58:37.185Z,42.20
2023-03-10T03:01:07.464Z,43.70
2023-03-10T03:03:39.222Z,42.53
2023-03-10T03:06:07.457Z,41.20
2023-03-10T03:08:34.729Z,38.60
2023-03-10T03:11:03.878Z,40.93
2023-03-10T03:13:31.485Z,36.93
2023-03-10T03:16:00.194Z,40.43
2023-03-10T03:18:27.172Z,38.20
2023-03-10T03:20:54.484Z,39.00
2023-03-10T03:23:21.461Z,41.03
2023-03-10T03:25:49.467Z,39.23
2023-03-10T03:28:19.069Z,42.60
2023-03-10T03:30:49.163Z,42.63
2023-03-10T03:33:16.126Z,37.00
2023-03-10T03:35:45.120Z,48.40
2023-03-10T03:38:13.476Z,37.57
2023-03-10T03:40:41.977Z,42.00
2023-03-10T03:43:12.647Z,44.83
2023-03-10T03:45:39.869Z,40.93
2023-03-10T03:48:06.827Z,39.77
2023-03-10T03:50:36.060Z,41.80
2023-03-10T03:53:09.446Z,41.70
2023-03-10T03:55:36.373Z,42.40
2023-03-10T03:58:03.419Z,40.57
2023-03-10T04:00:30.435Z,40.90
2023-03-10T04:03:03.833Z,40.57
2023-03-10T04:05:32.849Z,45.50
2023-03-10T04:08:00.553Z,44.23
2023-03-10T04:10:29.348Z,46.60
2023-03-10T04:12:57.110Z,42.77
2023-03-10T04:15:25.042Z,39.60
2023-03-10T04:17:52.165Z,44.00
2023-03-10T04:20:19.242Z,43.93
2023-03-10T04:22:49.499Z,40.70
2023-03-10T04:25:17.834Z,41.80
2023-03-10T04:27:45.671Z,45.50
2023-03-10T04:30:14.818Z,37.73
2023-03-10T04:32:47.867Z,46.07
2023-03-10T04:35:16.310Z,43.40
2023-03-10T04:37:44.858Z,41.80
2023-03-10T04:40:14.237Z,45.30
2023-03-10T04:42:42.409Z,41.37
2023-03-10T04:45:10.606Z,44.03
2023-03-10T04:47:40.440Z,37.80
2023-03-10T04:50:08.256Z,46.53
2023-03-10T04:52:35.583Z,46.67
2023-03-10T04:55:02.874Z,46.57
2023-03-10T04:57:30.411Z,54.20
2023-03-10T04:59:57.460Z,49.17
2023-03-10T05:02:25.092Z,50.57
2023-03-10T05:04:52.849Z,45.07
2023-03-10T05:07:21.368Z,45.10
2023-03-10T05:09:49.928Z,51.40
2023-03-10T05:12:16.976Z,45.63
2023-03-10T05:14:44.113Z,47.03
2023-03-10T05:17:11.968Z,41.70
2023-03-10T05:19:39.498Z,36.67
2023-03-10T05:22:08.001Z,45.50
2023-03-10T05:24:37.186Z,42.67
2023-03-10T05:27:04.619Z,46.80
2023-03-10T05:29:32.254Z,49.07
2023-03-10T05:32:07.391Z,49.30
2023-03-10T05:34:38.037Z,43.43
2023-03-10T05:37:05.155Z,35.73
2023-03-10T05:39:32.187Z,38.10
2023-03-10T05:42:03.138Z,36.70
2023-03-10T05:44:33.167Z,41.97
2023-03-10T05:47:02.137Z,39.07
2023-03-10T05:49:30.878Z,43.97
2023-03-10T05:51:58.968Z,40.43
2023-03-10T05:54:26.398Z,38.43
2023-03-10T05:56:53.485Z,40.20
2023-03-10T05:59:23.533Z,37.10
2023-03-10T06:01:52.069Z,37.60
2023-03-10T06:04:19.289Z,37.30
2023-03-10T06:06:46.190Z,35.87
2023-03-10T06:09:13.099Z,33.00
2023-03-10T06:11:40.041Z,32.13
2023-03-10T06:14:06.931Z,35.23
2023-03-10T06:16:33.844Z,36.40
2023-03-10T06:19:00.757Z,39.27
2023-03-10T06:21:29.420Z,30.30
2023-03-10T06:23:56.520Z,33.50
2023-03-10T06:26:24.283Z,41.13
2023-03-10T06:28:51.327Z,44.93
2023-03-10T06:31:23.346Z,41.80
2023-03-10T06:33:50.901Z,41.63
2023-03-10T06:36:18.953Z,45.57
2023-03-10T06:38:46.352Z,48.77
2023-03-10T06:41:13.630Z,44.17
2023-03-10T06:43:40.780Z,45.50
2023-03-10T06:46:10.175Z,38.83
2023-03-10T06:48:39.026Z,43.97
2023-03-10T06:51:13.260Z,46.00
2023-03-10T06:53:40.489Z,44.47
2023-03-10T06:56:12.232Z,50.10
2023-03-10T06:58:39.763Z,41.60
2023-03-10T07:01:08.007Z,36.60
2023-03-10T07:03:36.236Z,35.57
2023-03-10T07:06:03.108Z,38.17
2023-03-10T07:08:30.367Z,44.20
2023-03-10T07:10:57.668Z,33.87
2023-03-10T07:13:24.914Z,37.20
2023-03-10T07:15:52.041Z,39.17
2023-03-10T07:18:19.249Z,35.57
2023-03-10T07:20:48.167Z,31.50
2023-03-10T07:23:15.340Z,31.30
2023-03-10T07:25:42.345Z,34.47
2023-03-10T07:28:09.240Z,32.60
2023-03-10T07:30:36.644Z,34.50
2023-03-10T07:33:04.297Z,30.73
2023-03-10T07:35:31.232Z,30.70
2023-03-10T07:37:58.112Z,29.87
2023-03-10T07:40:25.196Z,31.00
2023-03-10T07:42:54.696Z,29.87
2023-03-10T07:45:24.507Z,27.33
2023-03-10T07:47:53.027Z,27.77
2023-03-10T07:50:21.258Z,30.63
2023-03-10T07:52:48.443Z,27.80
2023-03-10T07:55:15.309Z,26.37
2023-03-10T07:57:42.187Z,22.37
2023-03-10T08:00:10.390Z,23.60
2023-03-10T08:02:40.950Z,25.07
2023-03-10T08:05:10.104Z,24.53
2023-03-10T08:07:38.018Z,31.30
2023-03-10T08:10:06.217Z,28.30
2023-03-10T08:12:34.830Z,27.37
2023-03-10T08:15:01.924Z,24.10
2023-03-10T08:17:30.941Z,24.37
2023-03-10T08:19:58.708Z,21.60
2023-03-10T08:22:26.509Z,25.43
2023-03-10T08:24:53.872Z,26.37
2023-03-10T08:27:21.645Z,27.43
2023-03-10T08:29:48.541Z,19.60
2023-03-10T08:32:15.631Z,21.27
2023-03-10T08:34:43.141Z,20.73
2023-03-10T08:37:10.938Z,25.30
2023-03-10T08:39:38.020Z,21.10
2023-03-10T08:42:05.023Z,22.40
2023-03-10T08:44:31.934Z,22.00
2023-03-10T08:46:59.032Z,23.73
2023-03-10T08:49:26.117Z,21.87
2023-03-10T08:51:53.026Z,19.67
2023-03-10T08:54:22.177Z,27.90
2023-03-10T08:56:49.849Z,22.23
2023-03-10T08:59:16.833Z,25.80
2023-03-10T09:01:43.801Z,23.57
2023-03-10T09:04:10.999Z,23.17
2023-03-10T09:06:38.655Z,20.80
2023-03-10T09:09:08.347Z,22.50
2023-03-10T09:11:39.147Z,22.60
2023-03-10T09:14:07.767Z,27.27
2023-03-10T09:16:34.753Z,27.73
2023-03-10T09:19:02.392Z,22.47
2023-03-10T09:21:33.615Z,24.00
2023-03-10T09:24:01.562Z,22.90
2023-03-10T09:26:28.497Z,22.50
2023-03-10T09:28:57.059Z,27.00
2023-03-10T09:31:33.080Z,23.70
2023-03-10T09:34:00.304Z,21.83
2023-03-10T09:36:27.297Z,23.63
2023-03-10T09:38:54.280Z,22.30
2023-03-10T09:41:56.777Z,32.80
2023-03-10T09:44:51.277Z,25.30
2023-03-10T09:47:38.587Z,23.93
2023-03-10T09:50:33.726Z,23.90
2023-03-10T09:53:37.898Z,22.53
2023-03-10T09:56:15.946Z,25.93
2023-03-10T09:59:08.069Z,25.57
2023-03-10T10:01:35.367Z,25.40
2023-03-10T10:04:36.798Z,24.57
2023-03-10T10:07:15.587Z,25.00
2023-03-10T10:10:04.461Z,22.87
2023-03-10T10:12:32.783Z,25.30
2023-03-10T10:15:14.696Z,26.40
2023-03-10T10:18:33.519Z,25.30
2023-03-10T10:21:14.357Z,23.13
2023-03-10T10:23:47.675Z,23.87
2023-03-10T10:26:18.819Z,23.27
2023-03-10T10:28:54.375Z,23.87
2023-03-10T10:31:25.850Z,27.93
2023-03-10T10:34:22.744Z,23.50
2023-03-10T10:36:56.956Z,26.90
2023-03-10T10:39:40.727Z,24.57
2023-03-10T10:42:33.148Z,23.80
2023-03-10T10:45:04.371Z,25.03
2023-03-10T10:47:35.741Z,27.70
2023-03-10T10:50:18.009Z,26.50
2023-03-10T10:52:48.853Z,28.30
2023-03-10T10:55:34.724Z,26.57
2023-03-10T10:58:06.614Z,27.60
2023-03-10T11:00:37.414Z,27.47
2023-03-10T11:03:26.907Z,27.40
2023-03-10T11:05:56.339Z,29.03
2023-03-10T11:08:37.398Z,28.70
2023-03-10T11:11:36.444Z,24.97
2023-03-10T11:15:01.856Z,25.90
2023-03-10T11:17:33.394Z,23.20
2023-03-10T11:20:27.741Z,25.10
2023-03-10T11:23:20.293Z,32.97
2023-03-10T11:26:22.504Z,28.60
2023-03-10T11:28:54.124Z,29.80
2023-03-10T11:31:41.813Z,26.17
2023-03-10T11:34:30.329Z,26.30
2023-03-10T11:37:31.202Z,25.93
2023-03-10T11:40:28.406Z,28.50
2023-03-10T11:43:05.998Z,25.90
2023-03-10T11:45:54.626Z,26.13
2023-03-10T11:48:49.904Z,22.90
2023-03-10T11:51:29.137Z,28.90
2023-03-10T11:53:59.085Z,26.23
2023-03-10T11:56:27.589Z,24.90
2023-03-10T11:59:15.126Z,24.47
2023-03-10T12:02:19.392Z,25.90
2023-03-10T12:04:58.223Z,25.60
2023-03-10T12:07:38.166Z,24.63
2023-03-10T12:10:16.819Z,21.10
2023-03-10T12:12:46.920Z,22.10
2023-03-10T12:15:25.494Z,26.90
2023-03-10T12:17:54.187Z,21.77
2023-03-10T12:20:20.991Z,24.70
2023-03-10T12:22:53.187Z,26.17
2023-03-10T12:25:29.149Z,24.87
2023-03-10T12:28:24.333Z,26.80
2023-03-10T12:31:02.000Z,25.40
2023-03-10T12:33:33.645Z,22.07
2023-03-10T12:36:32.608Z,24.07
2023-03-10T12:39:28.081Z,25.43
2023-03-10T12:42:00.914Z,20.53
2023-03-10T12:44:48.707Z,21.20
2023-03-10T12:47:36.086Z,16.40
2023-03-10T12:50:22.695Z,18.07
2023-03-10T12:52:59.529Z,23.33
2023-03-10T12:55:28.138Z,23.67
2023-03-10T12:58:15.611Z,21.27
2023-03-10T13:00:55.856Z,16.93
2023-03-10T13:03:46.911Z,16.10
2023-03-10T13:06:13.734Z,17.77
2023-03-10T13:08:59.855Z,19.40
2023-03-10T13:11:48.696Z,18.47
2023-03-10T13:14:19.918Z,22.33
2023-03-10T13:17:00.584Z,16.67
2023-03-10T13:19:31.530Z,16.97
2023-03-10T13:21:58.994Z,18.67
2023-03-10T13:24:29.807Z,18.97
2023-03-10T13:27:19.477Z,21.30
2023-03-10T13:30:22.626Z,19.50
2023-03-10T13:32:56.715Z,19.77
2023-03-10T13:35:36.182Z,21.80
2023-03-10T13:38:11.874Z,17.50
2023-03-10T13:40:43.352Z,17.37
2023-03-10T13:43:37.565Z,15.27
2023-03-10T13:46:15.804Z,15.63
2023-03-10T13:48:43.408Z,15.17
2023-03-10T13:51:22.517Z,17.57
2023-03-10T13:53:53.236Z,15.47
2023-03-10T13:56:29.039Z,16.50
2023-03-10T13:59:02.419Z,12.90
2023-03-10T14:01:35.137Z,14.17
2023-03-10T14:04:08.799Z,15.47
2023-03-10T14:06:37.245Z,16.63
2023-03-10T14:09:24.757Z,13.50
2023-03-10T14:11:52.208Z,17.43
2023-03-10T14:14:34.240Z,16.23
2023-03-10T14:17:06.955Z,14.93
2023-03-10T14:19:48.443Z,13.83
2023-03-10T14:22:33.093Z,17.37
2023-03-10T14:25:01.824Z,15.47
2023-03-10T14:27:28.800Z,15.03
2023-03-10T14:30:01.415Z,15.30
2023-03-10T14:32:29.055Z,14.20
2023-03-10T14:34:56.046Z,11.30
2023-03-10T14:37:23.878Z,14.23
2023-03-10T14:39:50.767Z,11.50
2023-03-10T14:42:25.208Z,13.63
2023-03-10T14:44:53.300Z,14.73
2023-03-10T14:47:20.521Z,13.50
2023-03-10T14:49:47.509Z,15.53
2023-03-10T14:52:17.394Z,13.47
2023-03-10T14:54:44.446Z,18.97
2023-03-10T14:57:13.883Z,14.37
2023-03-10T14:59:41.030Z,16.17
2023-03-10T15:02:25.389Z,15.67
2023-03-10T15:04:52.433Z,16.10
2023-03-10T15:07:19.459Z,16.63
2023-03-10T15:09:46.472Z,16.57
2023-03-10T15:12:17.795Z,13.13
2023-03-10T15:14:52.496Z,15.70
2023-03-10T15:17:20.238Z,17.60
2023-03-10T15:19:47.140Z,15.63
2023-03-10T15:22:14.026Z,19.50
2023-03-10T15:24:41.007Z,17.60
2023-03-10T15:27:11.310Z,17.57
2023-03-10T15:29:38.231Z,15.57
2023-03-10T15:32:05.499Z,18.47
2023-03-10T15:34:32.546Z,18.73
2023-03-10T15:37:01.035Z,20.63
2023-03-10T15:39:31.828Z,21.70
2023-03-10T15:41:59.715Z,15.20
2023-03-10T15:44:26.616Z,16.40
2023-03-10T15:46:54.905Z,21.90
2023-03-10T15:49:22.004Z,19.77
2023-03-10T15:51:48.962Z,14.93
2023-03-10T15:54:15.871Z,16.43
2023-03-10T15:56:42.850Z,18.00
2023-03-10T15:59:09.966Z,16.57
2023-03-10T16:01:37.064Z,16.50
2023-03-10T16:04:05.857Z,18.50
2023-03-10T16:06:34.320Z,21.67
2023-03-10T16:09:01.442Z,16.03
2023-03-10T16:11:28.391Z,19.90
2023-03-10T16:13:55.319Z,15.03
2023-03-10T16:16:23.650Z,21.37
2023-03-10T16:18:51.220Z,15.00
2023-03-10T16:21:19.080Z,17.43
2023-03-10T16:23:46.466Z,16.60
2023-03-10T16:26:17.245Z,20.10
2023-03-10T16:28:52.528Z,15.13
2023-03-10T16:31:23.335Z,17.30
2023-03-10T16:33:51.488Z,18.73
2023-03-10T16:36:25.330Z,16.13
2023-03-10T16:38:53.748Z,15.23
2023-03-10T16:41:21.626Z,16.03
2023-03-10T16:43:48.602Z,18.43
2023-03-10T16:46:21.513Z,16.27
2023-03-10T16:48:48.905Z,18.23
2023-03-10T16:51:35.357Z,17.73
2023-03-10T16:54:05.375Z,17.53
2023-03-10T16:56:35.744Z,18.70
2023-03-10T16:59:02.653Z,17.60
2023-03-10T17:01:29.610Z,18.93
2023-03-10T17:03:56.729Z,17.97
2023-03-10T17:06:28.924Z,18.73
2023-03-10T17:08:56.812Z,17.30
2023-03-10T17:11:30.451Z,23.30
2023-03-10T17:14:01.584Z,18.30
2023-03-10T17:16:30.861Z,20.30
2023-03-10T17:19:01.185Z,16.77
2023-03-10T17:21:33.314Z,18.60
2023-03-10T17:24:00.247Z,18.00
2023-03-10T17:26:27.158Z,20.13
2023-03-10T17:28:54.064Z,20.87
2023-03-10T17:31:30.941Z,21.33
2023-03-10T17:34:04.585Z,25.97
2023-03-10T17:36:31.862Z,18.50
2023-03-10T17:39:01.928Z,18.00
2023-03-10T17:41:30.925Z,19.50
2023-03-10T17:43:57.814Z,19.97
2023-03-10T17:46:28.389Z,19.83
2023-03-10T17:48:56.300Z,20.23
2023-03-10T17:51:26.661Z,20.97
2023-03-10T17:53:54.419Z,20.13
2023-03-10T17:56:22.127Z,26.60
2023-03-10T17:58:50.055Z,21.03
2023-03-10T18:01:21.601Z,20.20
2023-03-10T18:03:48.814Z,22.63
2023-03-10T18:06:19.689Z,20.93
2023-03-10T18:08:46.989Z,21.90
2023-03-10T18:11:14.480Z,21.70
2023-03-10T18:13:41.964Z,20.83
2023-03-10T18:16:23.327Z,22.23
2023-03-10T18:18:50.279Z,23.00
2023-03-10T18:21:18.717Z,21.60
2023-03-10T18:23:46.530Z,23.63
2023-03-10T18:26:17.473Z,23.70
2023-03-10T18:28:44.646Z,28.17
2023-03-10T18:31:21.596Z,23.93
2023-03-10T18:33:48.979Z,27.00
2023-03-10T18:36:17.972Z,25.37
2023-03-10T18:38:47.105Z,26.00
2023-03-10T18:41:14.631Z,25.97
2023-03-10T18:43:41.549Z,28.37
2023-03-10T18:46:08.510Z,21.27
2023-03-10T18:48:35.486Z,31.43
2023-03-10T18:51:02.966Z,27.90
2023-03-10T18:53:29.864Z,26.37
2023-03-10T18:55:58.915Z,30.93
2023-03-10T18:58:26.882Z,27.33
2023-03-10T19:00:53.824Z,24.67
2023-03-10T19:03:20.724Z,26.17
2023-03-10T19:05:53.702Z,27.70
2023-03-10T19:08:22.210Z,29.57
2023-03-10T19:10:58.089Z,26.67
2023-03-10T19:13:28.164Z,30.70
2023-03-10T19:15:56.107Z,28.10
2023-03-10T19:18:24.068Z,30.00
2023-03-10T19:20:51.290Z,27.67
2023-03-10T19:23:18.273Z,24.87
2023-03-10T19:25:45.170Z,29.53
2023-03-10T19:28:12.104Z,32.27
2023-03-10T19:30:42.793Z,28.23
2023-03-10T19:33:10.855Z,30.00
2023-03-10T19:35:38.230Z,31.33
2023-03-10T19:38:05.528Z,29.03
2023-03-10T19:40:32.766Z,26.70
2023-03-10T19:42:59.813Z,31.43
2023-03-10T19:45:26.831Z,30.70
2023-03-10T19:47:57.826Z,27.10
2023-03-10T19:50:25.490Z,27.17
2023-03-10T19:52:52.606Z,27.40
2023-03-10T19:55:23.976Z,24.03
2023-03-10T19:57:53.952Z,27.93
2023-03-10T20:00:30.983Z,29.33
2023-03-10T20:02:58.519Z,29.17
2023-03-10T20:05:26.773Z,22.83
2023-03-10T20:07:53.907Z,31.10
2023-03-10T20:10:21.101Z,27.67
2023-03-10T20:12:51.088Z,27.03
2023-03-10T20:15:18.364Z,24.70
2023-03-10T20:17:45.648Z,24.07
2023-03-10T20:20:15.172Z,25.00
2023-03-10T20:22:45.517Z,29.83
2023-03-10T20:25:17.241Z,25.10
2023-03-10T20:27:45.251Z,25.97
2023-03-10T20:30:18.774Z,25.47
2023-03-10T20:32:45.976Z,23.40
2023-03-10T20:35:13.910Z,23.83
2023-03-10T20:37:41.993Z,27.10
2023-03-10T20:40:13.562Z,20.63
2023-03-10T20:42:41.238Z,21.10
2023-03-10T20:45:10.305Z,20.37
2023-03-10T20:47:37.788Z,24.67
2023-03-10T20:50:07.590Z,20.33
2023-03-10T20:52:36.590Z,24.47
2023-03-10T20:55:06.528Z,17.07
2023-03-10T20:57:34.685Z,24.10
2023-03-10T21:00:01.918Z,20.30
2023-03-10T21:02:29.014Z,17.23
2023-03-10T21:04:56.007Z,18.07
2023-03-10T21:07:22.896Z,19.23
2023-03-10T21:09:49.817Z,20.60
2023-03-10T21:12:18.627Z,21.03
2023-03-10T21:14:45.979Z,22.03
2023-03-10T21:17:13.058Z,16.97
2023-03-10T21:19:40.020Z,18.07
2023-03-10T21:22:06.920Z,17.40
2023-03-10T21:24:34.119Z,18.27
2023-03-10T21:27:01.219Z,18.30
2023-03-10T21:29:28.126Z,17.60
2023-03-10T21:31:55.033Z,16.00
2023-03-10T21:34:21.939Z,20.93
2023-03-10T21:36:48.798Z,17.93
2023-03-10T21:39:16.100Z,18.07
2023-03-10T21:41:42.999Z,13.73
2023-03-10T21:44:11.047Z,15.53
2023-03-10T21:46:37.977Z,12.67
2023-03-10T21:49:05.034Z,14.20
2023-03-10T21:51:34.621Z,15.30
2023-03-10T21:54:03.146Z,16.40
2023-03-10T21:56:30.113Z,16.53
2023-03-10T21:58:57.552Z,13.90
2023-03-10T22:01:24.766Z,14.17
2023-03-10T22:03:51.657Z,21.43
2023-03-10T22:06:18.560Z,15.63
2023-03-10T22:08:45.457Z,15.87
2023-03-10T22:11:13.030Z,14.00
2023-03-10T22:13:40.367Z,12.40
2023-03-10T22:16:10.600Z,13.13
2023-03-10T22:18:37.991Z,13.33
2023-03-10T22:21:05.328Z,13.40
2023-03-10T22:23:32.190Z,13.37
2023-03-10T22:25:59.090Z,11.80
2023-03-10T22:28:26.004Z,12.00
2023-03-10T22:30:52.910Z,12.07
2023-03-10T22:33:19.994Z,13.43
2023-03-10T22:35:51.853Z,14.23
2023-03-10T22:38:20.502Z,14.43
2023-03-10T22:40:48.056Z,13.13
2023-03-10T22:43:15.181Z,14.90
2023-03-10T22:45:42.085Z,13.40
2023-03-10T22:48:08.959Z,12.80
2023-03-10T22:50:43.651Z,10.47
2023-03-10T22:53:19.150Z,16.63
2023-03-10T22:55:47.862Z,9.57
2023-03-10T22:58:16.212Z,10.60
2023-03-10T23:00:43.782Z,16.30
2023-03-10T23:03:11.690Z,11.80
2023-03-10T23:05:38.733Z,13.83
2023-03-10T23:08:06.973Z,13.60
2023-03-10T23:10:35.639Z,13.30
2023-03-10T23:13:06.319Z,11.30
2023-03-10T23:15:36.721Z,9.43
2023-03-10T23:18:05.047Z,10.33
2023-03-10T23:20:36.608Z,8.50
2023-03-10T23:23:05.409Z,9.53
2023-03-10T23:25:35.096Z,10.20
2023-03-10T23:28:02.901Z,10.13
2023-03-10T23:30:30.203Z,10.20
2023-03-10T23:32:57.549Z,11.00
2023-03-10T23:35:31.201Z,9.30
2023-03-10T23:38:00.186Z,6.57
2023-03-10T23:40:30.000Z,7.20
2023-03-10T23:42:59.327Z,6.93
2023-03-10T23:45:28.958Z,8.50
2023-03-10T23:47:57.870Z,6.73
2023-03-10T23:50:37.493Z,8.30
2023-03-10T23:53:06.296Z,6.57
2023-03-10T23:55:37.217Z,10.73
2023-03-10T23:58:05.113Z,6.70
